Time;durP1;ratioP1;P1;durP2;ratioP2;P2;SDS_P1;SDS_P2;PMS_P1;PMS_P2;Temp;Humidity;BMP_temperature;BMP_pressure;BME280_temperature;BME280_humidity;BME280_pressure;Samples;Min_cycle;Max_cycle;Signal;HPM_P1;HPM_P2
2023/02/04 00:01:45;;;;;;;31.33;4.70;;;;;;;8.07;72.20;101146.50;4993735;28;20050;-80
2023/02/04 00:04:12;;;;;;;28.15;5.00;;;;;;;8.08;72.04;101155.25;4993858;28;20058;-81
2023/02/04 00:06:39;;;;;;;30.52;5.40;;;;;;;8.09;72.10;101143.84;4993337;28;20111;-80
2023/02/04 00:09:05;;;;;;;26.33;5.05;;;;;;;8.10;72.62;101139.50;4993438;28;20078;-80
2023/02/04 00:11:32;;;;;;;24.98;3.90;;;;;;;8.11;72.39;101149.06;4993839;28;20086;-80
2023/02/04 00:13:59;;;;;;;18.23;4.15;;;;;;;8.13;72.55;101158.63;4993632;28;20054;-80
2023/02/04 00:16:25;;;;;;;29.67;5.32;;;;;;;8.14;72.72;101162.97;4993555;28;20051;-80
2023/02/04 00:18:52;;;;;;;27.45;4.80;;;;;;;8.16;72.43;101163.81;4976054;28;20046;-80
2023/02/04 00:21:18;;;;;;;24.35;4.95;;;;;;;8.18;72.75;101175.09;4993407;28;20145;-80
2023/02/04 00:23:45;;;;;;;32.88;5.25;;;;;;;8.20;72.76;101181.19;4992860;28;20077;-81
2023/02/04 00:26:11;;;;;;;26.02;5.00;;;;;;;8.24;72.95;101187.22;4978248;28;20054;-81
2023/02/04 00:28:39;;;;;;;19.90;4.60;;;;;;;8.26;72.71;101190.66;5012100;28;20054;-81
2023/02/04 00:31:06;;;;;;;25.20;4.40;;;;;;;8.27;72.66;101188.91;5009185;28;20061;-80
2023/02/04 00:33:32;;;;;;;29.83;5.20;;;;;;;8.29;72.44;101184.47;5005989;28;20046;-81
2023/02/04 00:35:59;;;;;;;28.02;4.55;;;;;;;8.30;72.63;101194.94;5012200;28;20080;-80
2023/02/04 00:38:25;;;;;;;29.65;5.25;;;;;;;8.31;72.61;101188.81;5012739;28;20651;-80
2023/02/04 00:40:52;;;;;;;20.63;4.75;;;;;;;8.32;72.38;101192.28;5012708;28;20061;-81
2023/02/04 00:43:18;;;;;;;22.13;4.13;;;;;;;8.32;72.78;101201.00;5012689;28;20049;-80
2023/02/04 00:45:45;;;;;;;31.73;5.35;;;;;;;8.32;72.31;101194.91;5012319;28;20513;-80
2023/02/04 00:48:11;;;;;;;25.20;4.72;;;;;;;8.32;72.71;101201.00;5012536;28;20065;-80
2023/02/04 00:50:38;;;;;;;33.75;5.95;;;;;;;8.32;72.80;101200.13;5012341;28;20050;-80
2023/02/04 00:53:06;;;;;;;34.10;5.93;;;;;;;8.31;72.90;101207.16;5012678;28;20058;-81
2023/02/04 00:55:32;;;;;;;23.80;4.82;;;;;;;8.31;72.68;101208.91;4994888;28;20054;-80
2023/02/04 00:57:59;;;;;;;23.23;4.88;;;;;;;8.32;72.76;101221.13;5012346;28;20140;-80
2023/02/04 01:00:25;;;;;;;34.95;5.18;;;;;;;8.30;72.83;101220.31;4994641;28;20054;-80
2023/02/04 01:02:52;;;;;;;29.67;4.78;;;;;;;8.29;73.18;101216.81;4994948;28;20089;-80
2023/02/04 01:05:18;;;;;;;34.67;5.70;;;;;;;8.29;72.93;101227.31;5011988;28;20093;-80
2023/02/04 01:07:45;;;;;;;28.23;5.50;;;;;;;8.29;73.47;101244.81;5012111;28;20054;-80
2023/02/04 01:10:12;;;;;;;28.15;4.85;;;;;;;8.27;73.32;101229.13;5012077;28;20054;-80
2023/02/04 01:12:38;;;;;;;30.05;4.97;;;;;;;8.26;73.14;101243.13;5012174;28;20041;-80
2023/02/04 01:15:05;;;;;;;32.25;4.97;;;;;;;8.28;73.34;101250.97;5011898;28;20049;-80
2023/02/04 01:17:32;;;;;;;21.33;3.80;;;;;;;8.27;73.77;101251.88;5011876;28;20053;-80
2023/02/04 01:19:58;;;;;;;28.50;4.88;;;;;;;8.29;73.59;101260.53;5011815;28;20477;-81
2023/02/04 01:22:25;;;;;;;19.83;4.28;;;;;;;8.30;73.82;101270.16;5011892;28;20463;-80
2023/02/04 01:24:52;;;;;;;23.33;4.10;;;;;;;8.32;73.82;101270.97;5011806;28;20058;-80
2023/02/04 01:27:18;;;;;;;28.02;4.68;;;;;;;8.34;73.79;101266.56;5011724;28;20088;-80
2023/02/04 01:29:45;;;;;;;20.05;4.53;;;;;;;8.36;73.42;101270.00;5011835;28;20433;-80
2023/02/04 01:32:11;;;;;;;27.30;4.43;;;;;;;8.37;73.42;101276.97;5011683;28;20049;-80
2023/02/04 01:34:38;;;;;;;26.88;5.82;;;;;;;8.39;73.42;101277.81;5011592;28;20128;-80
2023/02/04 01:37:04;;;;;;;27.70;5.00;;;;;;;8.41;73.41;101278.63;5011292;28;20054;-80
2023/02/04 01:39:32;;;;;;;23.85;4.50;;;;;;;8.41;73.38;101278.63;5011703;28;20045;-80
2023/02/04 01:42:00;;;;;;;35.05;5.75;;;;;;;8.41;73.59;101273.38;5011455;28;20556;-80
2023/02/04 01:44:27;;;;;;;33.15;4.95;;;;;;;8.41;73.49;101289.13;5011515;28;20120;-81
2023/02/04 01:46:54;;;;;;;26.63;4.30;;;;;;;8.41;73.33;101283.88;5011061;28;20053;-80
2023/02/04 01:49:21;;;;;;;25.80;4.85;;;;;;;8.42;73.60;101290.88;5011698;28;20089;-80
2023/02/04 01:51:48;;;;;;;29.50;4.35;;;;;;;8.42;73.23;101295.25;5011407;28;20050;-80
2023/02/04 01:54:16;;;;;;;24.00;4.28;;;;;;;8.42;73.40;101296.13;5011300;28;20054;-80
2023/02/04 01:56:46;;;;;;;26.95;4.90;;;;;;;8.42;73.37;101290.00;5011167;28;20046;-81
2023/02/04 01:59:14;;;;;;;29.13;4.57;;;;;;;8.42;73.38;101296.13;5011177;28;20052;-81
2023/02/04 02:01:50;;;;;;;25.90;4.35;;;;;;;8.39;72.89;101298.81;4993663;28;20049;-81
2023/02/04 02:04:29;;;;;;;28.88;4.68;;;;;;;8.41;73.35;101312.75;5011268;28;20494;-80
2023/02/04 02:07:00;;;;;;;29.63;4.82;;;;;;;8.42;73.37;101327.63;5010931;28;20046;-81
2023/02/04 02:09:28;;;;;;;28.08;4.75;;;;;;;8.42;73.61;101329.38;5011202;28;20391;-80
2023/02/04 02:11:54;;;;;;;24.50;4.32;;;;;;;8.42;73.55;101329.38;5011035;28;20085;-80
2023/02/04 02:14:21;;;;;;;34.22;5.63;;;;;;;8.41;73.72;101331.13;4993901;28;20064;-80
2023/02/04 02:16:48;;;;;;;23.80;3.83;;;;;;;8.43;74.07;101331.09;5010940;28;20396;-80
2023/02/04 02:19:21;;;;;;;28.60;4.75;;;;;;;8.42;73.56;101332.00;5011330;28;20099;-80
2023/02/04 02:21:57;;;;;;;27.25;4.07;;;;;;;8.42;73.29;101337.25;5011133;28;20052;-80
2023/02/04 02:24:25;;;;;;;25.25;4.43;;;;;;;8.43;73.46;101328.47;5010911;28;20042;-80
2023/02/04 02:26:54;;;;;;;26.85;4.45;;;;;;;8.43;73.29;101331.09;5010803;28;20046;-80
2023/02/04 02:29:22;;;;;;;25.50;4.63;;;;;;;8.42;73.24;101335.50;5011105;28;20057;-80
2023/02/04 02:31:49;;;;;;;29.85;5.15;;;;;;;8.41;73.63;101332.88;4993515;28;20072;-80
2023/02/04 02:34:16;;;;;;;20.17;3.50;;;;;;;8.40;73.63;101334.63;5010916;28;20053;-81
2023/02/04 02:36:43;;;;;;;26.13;4.40;;;;;;;8.40;73.64;101333.75;5010471;28;20056;-80
2023/02/04 02:39:09;;;;;;;26.20;4.60;;;;;;;8.40;73.57;101345.13;5010519;28;20060;-80
2023/02/04 02:41:36;;;;;;;26.02;4.22;;;;;;;8.39;73.55;101345.16;4993540;28;20520;-80
2023/02/04 02:44:03;;;;;;;21.67;4.45;;;;;;;8.38;73.67;101348.69;5011008;28;20053;-80
2023/02/04 02:46:29;;;;;;;35.97;5.45;;;;;;;8.38;73.70;101352.19;5010693;28;20050;-80
2023/02/04 02:48:56;;;;;;;27.20;4.32;;;;;;;8.37;73.44;101353.06;5013511;28;20108;-80
2023/02/04 02:51:23;;;;;;;24.15;4.55;;;;;;;8.37;73.57;101358.31;5014891;28;20489;-80
2023/02/04 02:53:49;;;;;;;29.88;5.35;;;;;;;8.36;73.42;101353.97;5014854;28;20060;-80
2023/02/04 02:56:18;;;;;;;30.20;4.82;;;;;;;8.36;73.74;101356.59;5014893;28;20132;-80
2023/02/04 02:58:45;;;;;;;27.65;4.72;;;;;;;8.37;73.68;101354.84;5014471;28;20535;-82
2023/02/04 03:01:11;;;;;;;27.73;5.15;;;;;;;8.36;73.68;101359.22;5014641;28;20045;-80
2023/02/04 03:03:50;;;;;;;24.48;4.20;;;;;;;8.34;73.48;101361.88;5014566;28;20081;-80
2023/02/04 03:06:25;;;;;;;22.67;4.50;;;;;;;8.35;73.47;101362.75;5014395;28;20053;-80
2023/02/04 03:08:54;;;;;;;29.73;4.75;;;;;;;8.37;73.62;101353.06;5014347;28;20060;-80
2023/02/04 03:11:21;;;;;;;28.90;4.75;;;;;;;8.36;73.99;101356.59;5014591;28;20077;-81
2023/02/04 03:13:50;;;;;;;37.95;4.85;;;;;;;8.36;73.86;101364.47;5014382;28;20053;-80
2023/02/04 03:16:16;;;;;;;31.40;4.32;;;;;;;8.37;73.64;101360.94;5014298;28;20053;-80
2023/02/04 03:18:43;;;;;;;34.60;5.28;;;;;;;8.37;73.85;101360.09;5013992;28;20046;-79
2023/02/04 03:21:10;;;;;;;18.75;4.20;;;;;;;8.37;73.49;101365.34;5014381;28;20136;-80
2023/02/04 03:23:36;;;;;;;22.13;5.07;;;;;;;8.38;73.84;101382.81;5014057;28;20050;-80
2023/02/04 03:26:04;;;;;;;25.92;4.72;;;;;;;8.37;74.16;101381.09;5014138;28;20064;-80
2023/02/04 03:28:31;;;;;;;34.15;4.63;;;;;;;8.38;74.10;101375.81;5013788;28;20046;-80
2023/02/04 03:30:59;;;;;;;24.42;4.28;;;;;;;8.39;73.88;101385.41;5014018;28;20053;-81
2023/02/04 03:33:30;;;;;;;28.38;4.43;;;;;;;8.40;74.11;101384.50;5013963;28;20135;-80
2023/02/04 03:35:57;;;;;;;26.98;4.60;;;;;;;8.41;74.03;101380.97;5014038;28;20049;-80
2023/02/04 03:38:24;;;;;;;20.17;4.50;;;;;;;8.43;74.03;101386.19;5014034;28;20050;-80
2023/02/04 03:40:51;;;;;;;26.80;4.78;;;;;;;8.42;73.86;101385.34;5013601;28;20450;-80
2023/02/04 03:43:17;;;;;;;26.45;4.55;;;;;;;8.44;74.04;101382.66;5013715;28;20414;-80
2023/02/04 03:45:44;;;;;;;28.45;4.22;;;;;;;8.46;74.04;101396.63;5013551;28;20479;-80
2023/02/04 03:48:11;;;;;;;24.35;4.97;;;;;;;8.47;73.93;101396.59;4980279;28;20050;-80
2023/02/04 03:50:38;;;;;;;24.90;4.90;;;;;;;8.48;74.16;101400.94;5013743;28;20061;-80
2023/02/04 03:53:04;;;;;;;24.75;4.65;;;;;;;8.50;73.83;101405.28;5013798;28;20064;-81
2023/02/04 03:55:31;;;;;;;27.10;5.18;;;;;;;8.51;74.04;101402.63;5013460;28;20133;-80
2023/02/04 03:57:58;;;;;;;23.42;4.97;;;;;;;8.53;74.05;101413.13;5013442;28;20053;-80
2023/02/04 04:00:25;;;;;;;31.30;4.70;;;;;;;8.53;73.94;101419.25;4995516;28;20136;-80
2023/02/04 04:02:51;;;;;;;35.58;5.93;;;;;;;8.54;74.16;101420.09;5013685;28;20526;-80
2023/02/04 04:05:18;;;;;;;29.67;4.85;;;;;;;8.55;74.26;101421.81;5013318;28;20054;-80
2023/02/04 04:07:44;;;;;;;24.02;4.18;;;;;;;8.55;74.18;101427.94;5013235;28;20058;-80
2023/02/04 04:10:11;;;;;;;19.92;4.80;;;;;;;8.57;74.24;101426.16;5013239;28;20050;-80
2023/02/04 04:12:37;;;;;;;26.20;4.47;;;;;;;8.58;74.17;101421.78;5013242;28;20053;-80
2023/02/04 04:15:05;;;;;;;28.88;4.72;;;;;;;8.57;73.74;101426.16;5012923;28;20168;-80
2023/02/04 04:17:31;;;;;;;31.27;4.68;;;;;;;8.57;73.67;101427.91;5013311;28;20071;-80
2023/02/04 04:19:58;;;;;;;28.02;5.35;;;;;;;8.57;73.41;101433.19;5013216;28;20041;-80
2023/02/04 04:22:24;;;;;;;23.20;5.05;;;;;;;8.55;73.68;101437.56;5013142;28;20053;-80
2023/02/04 04:24:51;;;;;;;19.92;3.42;;;;;;;8.54;73.25;101441.97;5012975;28;20108;-80
2023/02/04 04:27:18;;;;;;;23.10;4.38;;;;;;;8.52;73.55;101448.13;5012689;28;20061;-80
2023/02/04 04:29:44;;;;;;;23.00;4.15;;;;;;;8.49;73.59;101446.44;5013175;28;20061;-80
2023/02/04 04:32:11;;;;;;;21.40;3.28;;;;;;;8.47;73.48;101449.09;5012864;28;20497;-80
2023/02/04 04:34:37;;;;;;;24.83;4.40;;;;;;;8.46;73.45;101449.13;5012939;28;20513;-80
2023/02/04 04:37:04;;;;;;;22.75;4.25;;;;;;;8.44;73.31;101453.50;5012543;28;20053;-80
2023/02/04 04:39:30;;;;;;;15.93;3.90;;;;;;;8.43;73.39;101457.03;5012856;28;20070;-81
2023/02/04 04:41:57;;;;;;;18.33;4.22;;;;;;;8.41;73.16;101471.97;5012627;28;20064;-79
2023/02/04 04:44:23;;;;;;;33.35;5.13;;;;;;;8.39;73.11;101479.88;5012942;28;20046;-81
2023/02/04 04:46:50;;;;;;;19.30;3.40;;;;;;;8.34;72.70;101477.31;5012536;28;20045;-80
2023/02/04 04:49:17;;;;;;;17.85;4.18;;;;;;;8.31;72.65;101480.03;5012868;28;20041;-80
2023/02/04 04:51:43;;;;;;;19.52;3.55;;;;;;;8.27;72.29;101477.47;5012524;28;20133;-81
2023/02/04 04:54:10;;;;;;;18.55;3.83;;;;;;;8.24;72.75;101485.41;5012552;28;20052;-80
2023/02/04 04:56:36;;;;;;;17.15;3.40;;;;;;;8.19;72.65;101483.72;5012019;28;20100;-80
2023/02/04 05:01:50;;;;;;;14.88;3.55;;;;;;;8.11;72.85;101487.41;5050681;23;20418;-80
2023/02/04 05:04:16;;;;;;;23.98;4.28;;;;;;;8.06;73.11;101495.34;5071591;28;20087;-80
2023/02/04 05:06:43;;;;;;;25.65;4.75;;;;;;;8.04;73.33;101505.03;5071129;28;20090;-79
2023/02/04 05:09:10;;;;;;;24.42;4.05;;;;;;;8.01;73.29;101505.06;5071277;28;20124;-79
2023/02/04 05:11:36;;;;;;;23.83;4.43;;;;;;;7.99;73.37;101512.13;5070815;28;20100;-79
2023/02/04 05:14:02;;;;;;;25.60;4.10;;;;;;;7.99;73.77;101512.13;5071303;28;20079;-79
2023/02/04 05:16:29;;;;;;;24.77;4.05;;;;;;;7.98;73.90;101515.59;5071255;28;20110;-79
2023/02/04 05:18:55;;;;;;;16.40;3.70;;;;;;;7.98;74.04;101515.59;5053093;28;20508;-80
2023/02/04 05:21:21;;;;;;;24.48;4.40;;;;;;;7.97;73.84;101525.25;5071110;28;20084;-80
2023/02/04 05:23:48;;;;;;;19.88;3.47;;;;;;;7.97;73.70;101525.25;5070985;28;20126;-79
2023/02/04 05:26:14;;;;;;;26.15;4.10;;;;;;;7.98;73.71;101526.09;5070814;28;20099;-79
2023/02/04 05:28:55;;;;;;;19.75;4.45;;;;;;;7.99;73.64;101528.69;5070851;28;20048;-79
2023/02/04 05:31:21;;;;;;;17.92;3.60;;;;;;;7.99;73.68;101533.94;5070958;28;20453;-79
2023/02/04 05:33:48;;;;;;;26.48;4.25;;;;;;;7.99;73.53;101528.69;5070801;28;20052;-80
2023/02/04 05:36:14;;;;;;;23.60;4.00;;;;;;;8.00;73.69;101532.19;5070682;28;20764;-79
2023/02/04 05:38:40;;;;;;;14.05;3.40;;;;;;;7.98;73.56;101529.59;5070490;28;20423;-79
2023/02/04 05:41:07;;;;;;;15.88;3.25;;;;;;;7.97;73.46;101529.63;5070537;28;20133;-79
2023/02/04 05:43:34;;;;;;;20.27;3.67;;;;;;;7.96;73.45;101539.22;5070573;28;20106;-79
2023/02/04 05:46:00;;;;;;;20.98;4.13;;;;;;;7.96;73.42;101544.47;5070640;28;20052;-80
2023/02/04 05:48:27;;;;;;;18.80;3.45;;;;;;;7.95;73.34;101554.13;5070174;28;20643;-79
2023/02/04 05:50:53;;;;;;;14.98;3.38;;;;;;;7.94;73.46;101554.13;5070504;28;20411;-79
2023/02/04 05:53:20;;;;;;;16.60;3.30;;;;;;;7.94;73.14;101551.50;5070296;28;20403;-80
2023/02/04 05:55:46;;;;;;;12.25;2.22;;;;;;;7.91;73.19;101549.81;5070612;28;20198;-79
2023/02/04 05:58:12;;;;;;;18.20;2.28;;;;;;;7.91;73.22;101557.69;5070354;28;20135;-80
2023/02/04 06:00:39;;;;;;;14.60;2.25;;;;;;;7.88;73.06;101559.47;5052567;28;20052;-79
2023/02/04 06:03:08;;;;;;;9.82;2.28;;;;;;;7.85;72.56;101567.41;5052625;28;20217;-79
2023/02/04 06:05:34;;;;;;;9.57;1.55;;;;;;;7.82;72.61;101560.44;5070288;28;20059;-79
2023/02/04 06:08:01;;;;;;;9.18;1.70;;;;;;;7.79;72.42;101563.13;5070013;28;20076;-79
2023/02/04 06:10:27;;;;;;;12.70;1.58;;;;;;;7.75;72.59;101567.56;5070377;28;20056;-79
2023/02/04 06:12:53;;;;;;;6.55;1.70;;;;;;;7.72;72.28;101579.81;5070321;28;20048;-79
2023/02/04 06:15:20;;;;;;;11.40;2.65;;;;;;;7.68;71.97;101576.41;5051121;28;20052;-79
2023/02/04 06:17:46;;;;;;;13.18;2.40;;;;;;;7.66;72.16;101570.28;5066297;28;20048;-79
2023/02/04 06:20:13;;;;;;;7.78;1.90;;;;;;;7.63;71.98;101584.31;5063760;28;20044;-80
2023/02/04 06:22:40;;;;;;;8.45;2.13;;;;;;;7.60;72.16;101589.63;5060649;28;20094;-79
2023/02/04 06:25:07;;;;;;;10.05;2.13;;;;;;;7.55;71.88;101594.03;5070090;28;20464;-79
2023/02/04 06:27:33;;;;;;;6.97;1.98;;;;;;;7.51;71.92;101597.63;5069990;28;20088;-80
2023/02/04 06:29:59;;;;;;;8.55;2.25;;;;;;;7.47;72.03;101596.78;5069833;28;20499;-80
2023/02/04 06:32:26;;;;;;;8.35;1.80;;;;;;;7.44;71.84;101599.44;5070028;28;20059;-79
2023/02/04 06:34:52;;;;;;;8.82;1.75;;;;;;;7.39;72.16;101594.28;5049979;28;20462;-79
2023/02/04 06:37:19;;;;;;;10.25;1.42;;;;;;;7.37;72.10;101588.19;5052838;28;20482;-79
2023/02/04 06:39:45;;;;;;;7.47;1.85;;;;;;;7.35;72.12;101600.44;5051664;28;20434;-80
2023/02/04 06:42:11;;;;;;;7.82;1.70;;;;;;;7.32;72.03;101602.25;5068937;28;20048;-79
2023/02/04 06:44:38;;;;;;;12.48;1.70;;;;;;;7.28;71.85;101609.28;5061157;28;20069;-80
2023/02/04 06:47:04;;;;;;;6.25;2.00;;;;;;;7.27;71.86;101618.03;5069385;28;20567;-78
2023/02/04 06:49:30;;;;;;;8.63;1.52;;;;;;;7.25;71.91;101627.66;5069529;28;20076;-80
2023/02/04 06:51:57;;;;;;;5.32;1.55;;;;;;;7.23;72.33;101632.03;5069464;28;20076;-79
2023/02/04 06:54:23;;;;;;;8.55;1.90;;;;;;;7.22;72.36;101641.63;5069825;28;20052;-80
2023/02/04 06:56:50;;;;;;;9.38;1.58;;;;;;;7.21;72.47;101634.69;5069354;28;20411;-79
2023/02/04 06:59:16;;;;;;;9.27;1.55;;;;;;;7.21;72.21;101637.28;5069581;28;20098;-80
2023/02/04 07:01:43;;;;;;;6.70;1.40;;;;;;;7.23;71.98;101632.03;5055567;28;20079;-80
2023/02/04 07:04:09;;;;;;;7.68;2.00;;;;;;;7.23;72.32;101639.91;5049525;28;20136;-80
2023/02/04 07:06:36;;;;;;;5.35;1.38;;;;;;;7.22;72.28;101631.16;5031639;28;20106;-80
2023/02/04 07:09:02;;;;;;;5.03;1.55;;;;;;;7.21;71.92;101641.69;5049608;28;20154;-80
2023/02/04 07:11:29;;;;;;;6.60;1.60;;;;;;;7.19;72.09;101643.44;5049343;28;20049;-80
2023/02/04 07:13:55;;;;;;;7.05;1.30;;;;;;;7.16;71.70;101647.84;5031643;28;20563;-80
2023/02/04 07:16:21;;;;;;;6.47;1.58;;;;;;;7.13;71.97;101642.63;5049268;28;20049;-80
2023/02/04 07:18:48;;;;;;;8.98;1.45;;;;;;;7.09;71.80;101654.03;5049203;28;20457;-80
2023/02/04 07:21:14;;;;;;;7.13;1.63;;;;;;;7.07;71.81;101654.94;5049441;28;20049;-80
2023/02/04 07:23:40;;;;;;;5.88;1.42;;;;;;;7.04;72.04;101658.47;5049341;28;20503;-80
2023/02/04 07:26:07;;;;;;;6.43;1.70;;;;;;;7.02;72.04;101661.09;5049075;28;20499;-81
2023/02/04 07:28:35;;;;;;;9.55;1.33;;;;;;;7.00;71.71;101657.59;5049218;28;20045;-80
2023/02/04 07:31:02;;;;;;;7.57;1.80;;;;;;;6.98;72.30;101651.53;5049581;28;20057;-80
2023/02/04 07:33:28;;;;;;;5.60;1.50;;;;;;;6.98;72.31;101661.13;5049596;28;20542;-80
2023/02/04 07:35:54;;;;;;;6.07;1.38;;;;;;;6.96;72.19;101669.03;5052955;28;20083;-80
2023/02/04 07:38:21;;;;;;;5.60;1.50;;;;;;;6.97;72.16;101669.88;5052949;28;20048;-80
2023/02/04 07:40:47;;;;;;;4.43;1.05;;;;;;;6.96;72.68;101674.28;5052972;28;20056;-80
2023/02/04 07:43:14;;;;;;;7.82;1.45;;;;;;;6.97;72.44;101685.59;5035134;28;20052;-80
2023/02/04 07:45:40;;;;;;;10.95;1.70;;;;;;;6.98;72.39;101684.69;5052732;28;20053;-80
2023/02/04 07:48:07;;;;;;;6.18;1.70;;;;;;;7.00;72.37;101690.81;5052891;28;20511;-80
2023/02/04 07:50:33;;;;;;;7.88;1.98;;;;;;;7.01;72.59;101698.66;5052855;28;20061;-79
2023/02/04 07:53:00;;;;;;;8.27;2.10;;;;;;;7.03;72.47;101693.41;5052836;28;20057;-80
2023/02/04 07:55:27;;;;;;;8.50;2.30;;;;;;;7.05;72.44;101696.84;5052615;28;20045;-80
2023/02/04 07:57:54;;;;;;;9.02;2.08;;;;;;;7.05;72.24;101702.09;5034603;28;20048;-80
2023/02/04 08:00:20;;;;;;;7.80;2.67;;;;;;;7.07;72.11;101710.81;5034614;28;20064;-80
2023/02/04 08:02:47;;;;;;;7.95;2.92;;;;;;;7.08;71.96;101707.28;5052259;28;20052;-80
2023/02/04 08:05:13;;;;;;;8.52;2.80;;;;;;;7.07;72.18;101702.94;5052858;28;20068;-80
2023/02/04 08:07:40;;;;;;;10.25;3.38;;;;;;;7.07;71.99;101710.81;5052428;28;20118;-80
2023/02/04 08:10:07;;;;;;;7.68;2.90;;;;;;;7.07;72.02;101707.31;5052221;28;20122;-81
2023/02/04 08:12:34;;;;;;;8.93;2.40;;;;;;;7.05;72.33;101715.19;5052316;28;20593;-80
2023/02/04 08:15:00;;;;;;;11.05;2.85;;;;;;;7.06;72.11;101714.28;5052127;28;20052;-81
2023/02/04 08:17:27;;;;;;;5.90;2.53;;;;;;;7.08;72.23;101725.63;5052497;28;20134;-80
2023/02/04 08:19:55;;;;;;;5.05;2.00;;;;;;;7.09;72.24;101723.84;5052415;28;20073;-81
2023/02/04 08:22:21;;;;;;;7.35;2.05;;;;;;;7.09;72.33;101723.84;5052268;28;20048;-80
2023/02/04 08:24:48;;;;;;;5.30;1.88;;;;;;;7.09;72.21;101724.75;5052108;28;20445;-80
2023/02/04 08:27:14;;;;;;;5.10;1.85;;;;;;;7.11;72.60;101743.91;5052031;28;20053;-80
2023/02/04 08:29:41;;;;;;;9.10;2.30;;;;;;;7.13;72.66;101742.16;5051866;28;20465;-80
2023/02/04 08:32:09;;;;;;;10.93;2.42;;;;;;;7.15;72.47;101750.84;5051769;28;20400;-80
2023/02/04 08:34:35;;;;;;;4.38;1.88;;;;;;;7.16;72.96;101739.50;5051826;28;20140;-80
2023/02/04 08:37:02;;;;;;;8.75;2.15;;;;;;;7.22;73.01;101750.81;5042550;28;20098;-80
2023/02/04 08:39:28;;;;;;;6.50;2.10;;;;;;;7.26;72.77;101755.13;5061540;28;20098;-80
2023/02/04 08:41:54;;;;;;;4.90;2.33;;;;;;;7.30;72.34;101764.69;5065016;28;20563;-80
2023/02/04 08:44:21;;;;;;;8.13;2.10;;;;;;;7.32;72.32;101767.31;5071629;28;20494;-80
2023/02/04 08:46:47;;;;;;;5.80;2.03;;;;;;;7.33;72.08;101767.25;5070527;28;20048;-80
2023/02/04 08:49:14;;;;;;;9.30;2.65;;;;;;;7.33;72.29;101769.03;5071698;28;20049;-81
2023/02/04 08:51:40;;;;;;;12.65;2.10;;;;;;;7.35;72.13;101772.47;5071613;28;20516;-80
2023/02/04 08:54:06;;;;;;;7.90;2.20;;;;;;;7.35;72.13;101775.97;5071567;28;20421;-80
2023/02/04 08:56:34;;;;;;;8.05;2.63;;;;;;;7.36;72.21;101780.31;5071378;28;20106;-80
2023/02/04 08:59:03;;;;;;;7.20;1.65;;;;;;;7.38;72.11;101783.81;5071710;28;20049;-80
2023/02/04 09:01:29;;;;;;;8.52;2.65;;;;;;;7.38;72.36;101778.56;5071580;28;20056;-80
2023/02/04 09:03:55;;;;;;;7.38;2.15;;;;;;;7.39;72.13;101779.44;5053618;28;20045;-80
2023/02/04 09:06:22;;;;;;;7.53;2.20;;;;;;;7.40;72.49;101776.78;5071534;28;20084;-80
2023/02/04 09:08:48;;;;;;;5.70;2.00;;;;;;;7.41;72.17;101783.75;5071169;28;20048;-80
2023/02/04 09:11:14;;;;;;;6.32;1.83;;;;;;;7.42;72.27;101788.13;5071595;28;20105;-80
2023/02/04 09:13:41;;;;;;;9.35;2.05;;;;;;;7.43;72.30;101786.38;5053472;28;20098;-80
2023/02/04 09:16:07;;;;;;;10.77;2.10;;;;;;;7.45;72.37;101786.34;5071164;28;20879;-80
2023/02/04 09:18:34;;;;;;;10.75;2.60;;;;;;;7.47;72.56;101789.84;5070958;28;20056;-80
2023/02/04 09:21:00;;;;;;;4.93;1.75;;;;;;;7.48;72.38;101783.72;5070696;28;20107;-81
2023/02/04 09:23:27;;;;;;;5.97;2.22;;;;;;;7.49;72.14;101783.69;5070508;28;20052;-81
2023/02/04 09:25:53;;;;;;;8.63;2.25;;;;;;;7.51;72.32;101789.78;5070174;28;20052;-80
2023/02/04 09:28:19;;;;;;;4.32;2.00;;;;;;;7.52;72.22;101791.50;5070527;28;20076;-81
2023/02/04 09:30:46;;;;;;;6.70;1.90;;;;;;;7.54;72.24;101797.63;5052436;28;20421;-80
2023/02/04 09:33:15;;;;;;;6.00;2.35;;;;;;;7.57;72.14;101794.09;5052720;28;20059;-81
2023/02/04 09:35:42;;;;;;;7.22;2.33;;;;;;;7.60;72.67;101790.56;5052727;28;20048;-80
2023/02/04 09:38:08;;;;;;;7.07;2.58;;;;;;;7.63;72.70;101787.91;5070438;28;20550;-80
2023/02/04 09:40:46;;;;;;;8.70;2.47;;;;;;;7.64;71.64;101790.50;5070253;28;20514;-80
2023/02/04 09:43:19;;;;;;;6.30;2.70;;;;;;;7.70;71.98;101789.56;5070663;28;20048;-80
2023/02/04 09:45:47;;;;;;;7.10;3.00;;;;;;;7.77;72.33;101793.84;5052614;28;20088;-79
2023/02/04 09:48:14;;;;;;;6.57;2.58;;;;;;;7.83;72.20;101798.16;5070294;28;20144;-79
2023/02/04 09:50:40;;;;;;;4.28;2.25;;;;;;;7.87;71.68;101802.47;5052510;28;20044;-80
2023/02/04 09:53:13;;;;;;;5.03;2.08;;;;;;;7.88;70.24;101801.56;5070305;28;20053;-80
2023/02/04 09:55:43;;;;;;;4.00;2.30;;;;;;;7.87;70.57;101802.47;5070302;28;20052;-79
2023/02/04 09:58:17;;;;;;;6.53;2.28;;;;;;;7.87;70.58;101812.97;5069986;28;20570;-81
2023/02/04 10:00:45;;;;;;;4.55;2.35;;;;;;;7.87;70.97;101819.94;5070171;28;20060;-81
2023/02/04 10:03:17;;;;;;;6.55;2.17;;;;;;;7.85;70.52;101821.72;5069954;28;20072;-80
2023/02/04 10:05:45;;;;;;;5.38;2.50;;;;;;;7.86;70.88;101826.09;5069859;28;20139;-80
2023/02/04 10:08:17;;;;;;;7.20;2.40;;;;;;;7.87;70.57;101838.28;5069898;28;20129;-79
2023/02/04 10:10:45;;;;;;;6.85;2.58;;;;;;;7.90;71.69;101843.50;5070077;28;20052;-80
2023/02/04 10:13:21;;;;;;;5.10;2.60;;;;;;;7.89;70.59;101837.38;5067873;28;20068;-79
2023/02/04 10:15:49;;;;;;;6.22;2.60;;;;;;;7.99;72.06;101845.16;5032015;28;20087;-80
2023/02/04 10:18:27;;;;;;;6.00;2.38;;;;;;;8.05;70.79;101842.47;5049719;28;20565;-79
2023/02/04 10:20:59;;;;;;;5.85;2.58;;;;;;;8.20;72.62;101844.00;5050096;28;20469;-80
2023/02/04 10:23:26;;;;;;;3.00;1.80;;;;;;;8.33;73.05;101844.69;5050246;28;20084;-80
2023/02/04 10:25:52;;;;;;;5.15;2.60;;;;;;;8.47;72.57;101850.66;5049879;28;20057;-80
2023/02/04 10:28:18;;;;;;;6.70;2.38;;;;;;;8.58;72.61;101845.28;5049818;28;20459;-80
2023/02/04 10:30:45;;;;;;;7.18;2.25;;;;;;;8.70;72.25;101843.31;5049969;28;20079;-80
2023/02/04 10:33:24;;;;;;;4.78;2.20;;;;;;;8.77;70.06;101846.72;5065712;28;20052;-80
2023/02/04 10:35:55;;;;;;;5.55;2.22;;;;;;;8.90;70.53;101839.53;5069924;28;20052;-80
2023/02/04 10:38:22;;;;;;;4.78;2.17;;;;;;;8.99;71.52;101845.50;5069737;28;20044;-80
2023/02/04 10:41:02;;;;;;;4.88;2.42;;;;;;;9.04;69.54;101841.94;5066365;28;20478;-80
2023/02/04 10:43:28;;;;;;;6.82;2.28;;;;;;;9.16;70.88;101843.47;5066338;28;20059;-80
2023/02/04 10:46:01;;;;;;;7.85;2.92;;;;;;;9.21;69.47;101841.63;5069668;28;20056;-80
2023/02/04 10:48:29;;;;;;;4.10;2.17;;;;;;;9.30;70.75;101848.50;5069609;28;20432;-81
2023/02/04 10:50:57;;;;;;;3.10;1.95;;;;;;;9.34;69.97;101850.16;5052006;28;20060;-81
2023/02/04 10:56:17;;;;;;;6.97;2.83;;;;;;;9.47;68.76;101856.94;5069747;28;20060;-80
2023/02/04 10:58:44;;;;;;;;;;;;;;;9.57;68.49;101860.25;5069921;28;20071;-80
2023/02/04 11:03:52;;;;;;;5.10;2.10;;;;;;;9.75;70.35;101863.41;4989062;22;20510;-79
2023/02/04 11:06:23;;;;;;;7.90;2.22;;;;;;;9.80;68.80;101858.97;5009531;28;20556;-78
2023/02/04 11:08:54;;;;;;;3.92;2.17;;;;;;;9.88;69.31;101853.53;5010733;28;20057;-78
2023/02/04 11:11:25;;;;;;;6.55;2.35;;;;;;;9.93;68.52;101854.31;5014020;28;20133;-78
2023/02/04 11:13:51;;;;;;;2.50;1.92;;;;;;;9.99;69.79;101848.91;5013858;28;20495;-79
2023/02/04 11:16:17;;;;;;;4.43;2.20;;;;;;;10.03;69.42;101847.94;5013988;28;20054;-78
2023/02/04 11:18:57;;;;;;;6.85;2.25;;;;;;;10.03;66.95;101847.09;5013953;28;20050;-78
2023/02/04 11:21:28;;;;;;;6.05;2.03;;;;;;;10.10;69.25;101853.09;5013778;28;20053;-77
2023/02/04 11:24:04;;;;;;;2.85;1.83;;;;;;;10.11;67.13;101847.81;5013962;28;20545;-77
2023/02/04 11:26:36;;;;;;;5.80;1.92;;;;;;;10.17;67.68;101850.28;5013989;28;20046;-77
2023/02/04 11:29:02;;;;;;;7.47;2.40;;;;;;;10.26;69.06;101851.88;5013174;28;20479;-77
2023/02/04 11:31:40;;;;;;;7.07;1.80;;;;;;;10.29;66.25;101861.47;5012765;28;20054;-78
2023/02/04 11:34:17;;;;;;;5.90;2.13;;;;;;;10.35;66.21;101860.47;5013300;28;20048;-78
2023/02/04 11:37:09;;;;;;;2.95;1.60;;;;;;;10.39;65.79;101859.50;5012921;28;20057;-77
2023/02/04 11:39:44;;;;;;;2.55;1.90;;;;;;;10.45;66.49;101862.03;5013933;28;20050;-78